createdAt,value
2023-04-27T00:01:58.549Z,11.50
2023-04-27T00:04:26.756Z,11.50
2023-04-27T00:06:54.757Z,11.70
2023-04-27T00:09:22.671Z,12.10
2023-04-27T00:11:50.561Z,12.30
2023-04-27T00:14:28.385Z,12.40
2023-04-27T00:16:56.272Z,12.40
2023-04-27T00:19:26.911Z,12.30
2023-04-27T00:22:03.921Z,12.30
2023-04-27T00:24:31.922Z,12.40
2023-04-27T00:27:03.033Z,12.50
2023-04-27T00:29:35.097Z,12.80
2023-04-27T00:32:05.814Z,12.60
2023-04-27T00:34:33.712Z,12.50
2023-04-27T00:37:06.418Z,12.30
2023-04-27T00:39:37.758Z,12.00
2023-04-27T00:42:14.072Z,11.70
2023-04-27T00:44:48.681Z,11.50
2023-04-27T00:47:17.852Z,11.60
2023-04-27T00:49:51.716Z,11.90
2023-04-27T00:52:22.388Z,11.70
2023-04-27T00:54:53.709Z,11.70
2023-04-27T00:57:23.221Z,11.70
2023-04-27T00:59:52.742Z,11.80
2023-04-27T01:02:20.773Z,12.20
2023-04-27T01:04:50.446Z,12.30
2023-04-27T01:07:18.397Z,12.10
2023-04-27T01:09:52.432Z,11.80
2023-04-27T01:12:20.324Z,11.50
2023-04-27T01:15:00.049Z,11.30
2023-04-27T01:17:28.007Z,11.30
2023-04-27T01:19:59.006Z,11.30
2023-04-27T01:22:27.072Z,11.70
2023-04-27T01:24:56.317Z,12.10
2023-04-27T01:27:27.450Z,12.20
2023-04-27T01:29:58.140Z,12.10
2023-04-27T01:32:26.764Z,12.10
2023-04-27T01:35:02.953Z,12.30
2023-04-27T01:37:35.651Z,12.00
2023-04-27T01:40:06.616Z,11.70
2023-04-27T01:42:34.538Z,11.30
2023-04-27T01:45:05.224Z,11.00
2023-04-27T01:47:38.529Z,10.80
2023-04-27T01:50:12.558Z,10.90
2023-04-27T01:52:40.459Z,11.20
2023-04-27T01:55:11.117Z,11.10
2023-04-27T01:57:42.128Z,10.80
2023-04-27T02:00:15.595Z,10.70
2023-04-27T02:02:57.609Z,10.90
2023-04-27T02:05:31.626Z,11.30
2023-04-27T02:08:02.299Z,11.40
2023-04-27T02:10:35.537Z,11.20
2023-04-27T02:13:06.083Z,11.00
2023-04-27T02:15:35.300Z,11.00
2023-04-27T02:18:04.627Z,11.10
2023-04-27T02:20:32.769Z,11.40
2023-04-27T02:23:00.967Z,11.30
2023-04-27T02:25:29.341Z,11.20
2023-04-27T02:28:01.914Z,11.00
2023-04-27T02:30:33.075Z,10.90
2023-04-27T02:33:03.743Z,11.20
2023-04-27T02:35:37.437Z,11.40
2023-04-27T02:38:05.343Z,11.40
2023-04-27T02:40:33.424Z,11.30
2023-04-27T02:43:02.716Z,11.10
2023-04-27T02:45:50.710Z,11.00
2023-04-27T02:48:18.642Z,11.30
2023-04-27T02:50:46.807Z,11.30
2023-04-27T02:53:17.498Z,11.10
2023-04-27T02:55:51.705Z,11.00
2023-04-27T02:58:26.640Z,11.10
2023-04-27T03:00:58.062Z,11.50
2023-04-27T03:03:26.119Z,11.90
2023-04-27T03:05:54.273Z,12.10
2023-04-27T03:08:25.208Z,12.20
2023-04-27T03:10:53.074Z,12.00
2023-04-27T03:13:25.417Z,11.90
2023-04-27T03:15:56.378Z,12.10
2023-04-27T03:18:24.286Z,12.10
2023-04-27T03:20:54.579Z,12.30
2023-04-27T03:23:25.513Z,12.30
2023-04-27T03:25:56.169Z,12.30
2023-04-27T03:28:28.624Z,12.10
2023-04-27T03:30:58.758Z,12.00
2023-04-27T03:33:30.342Z,11.90
2023-04-27T03:35:58.930Z,11.60
2023-04-27T03:38:29.983Z,11.50
2023-04-27T03:40:58.102Z,11.60
2023-04-27T03:43:47.415Z,11.60
2023-04-27T03:46:16.660Z,11.70
2023-04-27T03:48:47.079Z,11.60
2023-04-27T03:51:14.966Z,11.70
2023-04-27T03:53:42.808Z,11.70
2023-04-27T03:56:10.699Z,12.00
2023-04-27T03:58:38.558Z,12.00
2023-04-27T04:01:10.023Z,11.90
2023-04-27T04:03:39.512Z,11.90
2023-04-27T04:06:07.683Z,12.10
2023-04-27T04:08:38.356Z,12.30
2023-04-27T04:11:06.404Z,12.40
2023-04-27T04:13:35.875Z,12.50
2023-04-27T04:16:04.878Z,12.50
2023-04-27T04:18:32.794Z,12.60
2023-04-27T04:21:04.876Z,12.60
2023-04-27T04:23:35.860Z,12.50
2023-04-27T04:26:03.834Z,12.30
2023-04-27T04:28:38.248Z,12.20
2023-04-27T04:31:13.404Z,12.30
2023-04-27T04:33:41.271Z,12.10
2023-04-27T04:36:11.108Z,11.90
2023-04-27T04:38:44.953Z,11.80
2023-04-27T04:41:15.752Z,12.10
2023-04-27T04:43:48.218Z,12.40
2023-04-27T04:46:16.534Z,12.50
2023-04-27T04:48:44.750Z,12.60
2023-04-27T04:51:16.980Z,12.70
2023-04-27T04:53:50.917Z,12.50
2023-04-27T04:56:19.011Z,12.50
2023-04-27T04:58:46.907Z,12.60
2023-04-27T05:01:17.956Z,12.40
2023-04-27T05:03:45.941Z,12.10
2023-04-27T05:06:18.422Z,12.00
2023-04-27T05:08:49.553Z,11.80
2023-04-27T05:11:23.299Z,11.60
2023-04-27T05:13:56.999Z,11.50
2023-04-27T05:16:26.387Z,11.60
2023-04-27T05:18:54.768Z,11.80
2023-04-27T05:21:26.840Z,11.80
2023-04-27T05:23:54.714Z,11.80
2023-04-27T05:26:28.636Z,11.70
2023-04-27T05:28:56.566Z,11.70
2023-04-27T05:31:24.465Z,11.70
2023-04-27T05:33:58.128Z,11.60
2023-04-27T05:36:29.673Z,11.60
2023-04-27T05:38:57.625Z,11.60
2023-04-27T05:41:25.677Z,11.70
2023-04-27T05:43:56.580Z,11.60
2023-04-27T05:46:24.541Z,11.40
2023-04-27T05:48:52.522Z,11.10
2023-04-27T05:51:20.760Z,10.90
2023-04-27T05:53:50.005Z,10.70
2023-04-27T05:56:17.856Z,10.90
2023-04-27T05:58:46.036Z,11.10
2023-04-27T06:01:14.001Z,11.10
2023-04-27T06:03:42.117Z,11.10
2023-04-27T06:06:10.271Z,11.10
2023-04-27T06:08:41.216Z,11.30
2023-04-27T06:11:10.693Z,11.40
2023-04-27T06:13:38.562Z,11.60
2023-04-27T06:16:12.255Z,11.70
2023-04-27T06:18:42.951Z,11.60
2023-04-27T06:21:11.109Z,11.20
2023-04-27T06:23:41.962Z,11.30
2023-04-27T06:26:11.473Z,11.50
2023-04-27T06:28:44.971Z,11.70
2023-04-27T06:31:12.891Z,11.80
2023-04-27T06:33:41.344Z,11.40
2023-04-27T06:36:09.467Z,11.20
2023-04-27T06:38:37.337Z,11.10
2023-04-27T06:41:05.505Z,11.20
2023-04-27T06:43:34.753Z,11.20
2023-04-27T06:46:02.995Z,10.90
2023-04-27T06:48:31.223Z,10.80
2023-04-27T06:51:05.562Z,10.70
2023-04-27T06:53:33.485Z,10.80
2023-04-27T06:56:01.718Z,10.70
2023-04-27T06:58:29.588Z,11.00
2023-04-27T07:00:58.824Z,11.10
2023-04-27T07:03:26.811Z,11.30
2023-04-27T07:06:00.776Z,11.10
2023-04-27T07:08:28.621Z,11.30
2023-04-27T07:10:57.161Z,11.20
2023-04-27T07:13:25.170Z,11.30
2023-04-27T07:15:58.642Z,11.30
2023-04-27T07:18:28.398Z,11.10
2023-04-27T07:20:57.883Z,11.00
2023-04-27T07:23:25.847Z,11.00
2023-04-27T07:25:54.099Z,10.80
2023-04-27T07:28:25.056Z,10.90
2023-04-27T07:30:53.122Z,11.20
2023-04-27T07:33:22.177Z,11.30
2023-04-27T07:35:53.149Z,10.80
2023-04-27T07:38:21.095Z,11.00
2023-04-27T07:40:49.736Z,11.30
2023-04-27T07:43:25.644Z,11.50
2023-04-27T07:45:54.391Z,11.80
2023-04-27T07:48:25.452Z,12.10
2023-04-27T07:50:57.760Z,12.20
2023-04-27T07:53:25.742Z,12.20
2023-04-27T07:55:53.842Z,12.20
2023-04-27T07:58:27.695Z,12.20
2023-04-27T08:01:04.876Z,12.20
2023-04-27T08:03:32.916Z,12.20
2023-04-27T08:06:12.072Z,12.30
2023-04-27T08:08:42.955Z,12.30
2023-04-27T08:11:13.704Z,12.00
2023-04-27T08:13:43.362Z,12.00
2023-04-27T08:16:14.085Z,12.00
2023-04-27T08:18:41.984Z,12.00
2023-04-27T08:21:11.286Z,12.10
2023-04-27T08:23:48.129Z,12.20
2023-04-27T08:26:16.636Z,12.20
2023-04-27T08:28:45.789Z,12.10
2023-04-27T08:31:14.020Z,11.90
2023-04-27T08:33:41.947Z,11.90
2023-04-27T08:36:21.055Z,12.00
2023-04-27T08:38:48.890Z,12.10
2023-04-27T08:41:23.214Z,12.20
2023-04-27T08:43:53.271Z,12.10
2023-04-27T08:46:22.321Z,11.90
2023-04-27T08:48:56.904Z,12.00
2023-04-27T08:51:29.718Z,12.10
2023-04-27T08:53:58.829Z,12.20
2023-04-27T08:56:28.029Z,12.20
2023-04-27T08:58:57.286Z,12.30
2023-04-27T09:01:27.434Z,12.20
2023-04-27T09:04:00.056Z,12.00
2023-04-27T09:06:33.028Z,12.20
2023-04-27T09:09:01.543Z,12.20
2023-04-27T09:11:45.576Z,12.20
2023-04-27T09:14:20.976Z,12.10
2023-04-27T09:16:59.230Z,12.20
2023-04-27T09:19:28.483Z,12.10
2023-04-27T09:22:08.435Z,12.00
2023-04-27T09:24:36.855Z,12.00
2023-04-27T09:27:05.786Z,11.70
2023-04-27T09:29:34.554Z,11.70
2023-04-27T09:32:03.496Z,11.80
2023-04-27T09:34:49.124Z,11.90
2023-04-27T09:37:22.062Z,11.80
2023-04-27T09:39:53.117Z,11.60
2023-04-27T09:42:21.163Z,11.70
2023-04-27T09:44:49.429Z,11.60
2023-04-27T09:47:17.923Z,11.50
2023-04-27T09:49:45.958Z,11.70
2023-04-27T09:52:13.881Z,11.50
2023-04-27T09:54:43.395Z,11.50
2023-04-27T09:57:22.894Z,11.60
2023-04-27T10:00:11.934Z,11.70
2023-04-27T10:02:54.447Z,11.90
2023-04-27T10:05:54.670Z,12.00
2023-04-27T10:08:22.628Z,11.90
2023-04-27T10:10:56.479Z,11.90
2023-04-27T10:13:26.094Z,11.90
2023-04-27T10:15:56.733Z,12.00
2023-04-27T10:18:30.580Z,12.00
2023-04-27T10:21:13.011Z,11.90
2023-04-27T10:23:48.294Z,12.00
2023-04-27T10:26:25.110Z,12.10
2023-04-27T10:29:05.421Z,12.00
2023-04-27T10:31:33.823Z,12.00
2023-04-27T10:34:12.400Z,12.20
2023-04-27T10:36:41.350Z,12.40
2023-04-27T10:39:18.369Z,12.70
2023-04-27T10:41:54.972Z,12.70
2023-04-27T10:44:30.710Z,12.60
2023-04-27T10:47:03.120Z,12.50
2023-04-27T10:49:31.882Z,12.70
2023-04-27T10:52:04.798Z,13.10
2023-04-27T10:54:33.358Z,13.20
2023-04-27T10:57:06.837Z,13.20
2023-04-27T10:59:51.047Z,13.20
2023-04-27T11:02:25.816Z,13.40
2023-04-27T11:05:02.498Z,13.10
2023-04-27T11:07:33.728Z,12.90
2023-04-27T11:10:03.661Z,12.80
2023-04-27T11:12:36.506Z,13.00
2023-04-27T11:15:05.584Z,13.50
2023-04-27T11:17:51.656Z,13.70
2023-04-27T11:20:27.961Z,13.70
2023-04-27T11:22:59.086Z,13.60
2023-04-27T11:25:36.780Z,13.80
2023-04-27T11:28:06.393Z,13.80
2023-04-27T11:30:56.703Z,14.70
2023-04-27T11:33:24.729Z,14.50
2023-04-27T11:35:54.793Z,14.50
2023-04-27T11:38:22.766Z,14.20
2023-04-27T11:41:01.471Z,13.70
2023-04-27T11:43:30.725Z,13.70
2023-04-27T11:45:59.251Z,13.70
2023-04-27T11:48:28.659Z,13.50
2023-04-27T11:51:01.086Z,13.40
2023-04-27T11:53:33.047Z,13.30
2023-04-27T11:56:02.503Z,13.20
2023-04-27T11:58:33.888Z,13.20
2023-04-27T12:01:08.391Z,13.60
2023-04-27T12:03:36.612Z,13.70
2023-04-27T12:06:22.079Z,13.90
2023-04-27T12:09:05.142Z,13.50
2023-04-27T12:11:33.636Z,13.60
2023-04-27T12:14:14.259Z,13.50
2023-04-27T12:16:42.367Z,13.50
2023-04-27T12:19:12.892Z,13.40
2023-04-27T12:21:46.606Z,13.40
2023-04-27T12:24:17.655Z,13.50
2023-04-27T12:26:57.987Z,13.60
2023-04-27T12:29:30.159Z,13.50
2023-04-27T12:32:00.936Z,13.40
2023-04-27T12:34:29.248Z,13.50
2023-04-27T12:37:03.297Z,13.50
2023-04-27T12:39:37.365Z,13.60
2023-04-27T12:42:08.309Z,13.60
2023-04-27T12:44:41.258Z,13.60
2023-04-27T12:47:09.199Z,13.40
2023-04-27T12:49:37.828Z,13.30
2023-04-27T12:52:06.101Z,13.40
2023-04-27T12:54:33.987Z,13.70
2023-04-27T12:57:06.389Z,14.00
2023-04-27T12:59:34.380Z,14.00
2023-04-27T13:02:04.792Z,13.90
2023-04-27T13:04:33.249Z,13.70
2023-04-27T13:07:04.020Z,13.60
2023-04-27T13:09:31.872Z,13.30
2023-04-27T13:12:01.579Z,13.20
2023-04-27T13:14:30.183Z,13.10
2023-04-27T13:16:58.092Z,13.00
2023-04-27T13:19:27.339Z,13.00
2023-04-27T13:21:55.200Z,13.20
2023-04-27T13:24:24.478Z,13.10
2023-04-27T13:26:52.330Z,13.20
2023-04-27T13:29:20.341Z,13.20
2023-04-27T13:31:48.641Z,13.30
2023-04-27T13:34:16.772Z,13.70
2023-04-27T13:36:47.771Z,13.70
2023-04-27T13:39:17.178Z,13.60
2023-04-27T13:41:46.292Z,13.40
2023-04-27T13:44:14.412Z,13.30
2023-04-27T13:46:43.774Z,13.50
2023-04-27T13:49:11.789Z,13.60
2023-04-27T13:51:40.491Z,14.20
2023-04-27T13:54:10.195Z,14.30
2023-04-27T13:56:38.668Z,14.70
2023-04-27T13:59:06.549Z,14.60
2023-04-27T14:01:34.551Z,14.50
2023-04-27T14:04:02.832Z,15.60
2023-04-27T14:06:31.846Z,16.70
2023-04-27T14:08:59.843Z,17.10
2023-04-27T14:11:29.168Z,17.20
2023-04-27T14:14:00.002Z,16.40
2023-04-27T14:16:27.941Z,15.40
2023-04-27T14:18:58.841Z,14.70
2023-04-27T14:21:27.913Z,15.20
2023-04-27T14:23:55.768Z,15.30
2023-04-27T14:26:23.660Z,14.80
2023-04-27T14:28:58.485Z,14.60
2023-04-27T14:31:29.366Z,14.40
2023-04-27T14:34:00.476Z,14.30
2023-04-27T14:36:28.803Z,14.90
2023-04-27T14:38:56.757Z,15.90
2023-04-27T14:41:24.799Z,16.40
2023-04-27T14:43:54.146Z,16.10
2023-04-27T14:46:22.616Z,16.10
2023-04-27T14:48:51.166Z,16.00
2023-04-27T14:51:28.737Z,15.80
2023-04-27T14:53:59.756Z,15.70
2023-04-27T14:56:27.681Z,15.60
2023-04-27T14:58:56.874Z,15.50
2023-04-27T15:01:27.868Z,15.50
2023-04-27T15:03:57.904Z,15.40
2023-04-27T15:06:28.058Z,15.20
2023-04-27T15:09:01.743Z,15.40
2023-04-27T15:11:29.632Z,15.40
2023-04-27T15:13:58.858Z,15.40
2023-04-27T15:16:26.867Z,15.30
2023-04-27T15:18:57.972Z,15.20
2023-04-27T15:21:27.989Z,15.00
2023-04-27T15:23:55.873Z,15.30
2023-04-27T15:26:23.837Z,15.30
2023-04-27T15:28:51.865Z,15.30
2023-04-27T15:31:21.195Z,15.10
2023-04-27T15:33:49.136Z,15.20
2023-04-27T15:36:17.435Z,14.80
2023-04-27T15:38:51.817Z,14.50
2023-04-27T15:41:22.593Z,14.60
2023-04-27T15:43:52.247Z,14.90
2023-04-27T15:46:21.553Z,14.90
2023-04-27T15:48:55.673Z,14.70
2023-04-27T15:51:28.592Z,14.80
2023-04-27T15:53:59.613Z,15.10
2023-04-27T15:56:30.524Z,15.20
2023-04-27T15:59:04.991Z,15.30
2023-04-27T16:01:34.408Z,15.40
2023-04-27T16:04:02.410Z,15.40
2023-04-27T16:06:36.338Z,15.30
2023-04-27T16:09:04.827Z,15.30
2023-04-27T16:11:38.950Z,15.10
2023-04-27T16:14:12.880Z,15.00
2023-04-27T16:16:51.923Z,15.10
2023-04-27T16:19:19.906Z,14.90
2023-04-27T16:21:53.919Z,14.80
2023-04-27T16:24:21.842Z,14.60
2023-04-27T16:27:03.441Z,14.60
2023-04-27T16:29:31.303Z,14.60
2023-04-27T16:32:01.134Z,14.60
2023-04-27T16:34:32.714Z,14.50
2023-04-27T16:37:00.667Z,14.40
2023-04-27T16:39:36.063Z,14.30
2023-04-27T16:42:04.120Z,14.40
2023-04-27T16:44:32.824Z,14.40
2023-04-27T16:47:02.065Z,14.30
2023-04-27T16:49:35.495Z,14.30
2023-04-27T16:52:03.396Z,14.20
2023-04-27T16:54:42.568Z,14.20
2023-04-27T16:57:13.210Z,14.20
2023-04-27T16:59:45.761Z,14.10
2023-04-27T17:02:24.635Z,14.20
2023-04-27T17:05:03.418Z,14.20
2023-04-27T17:07:32.643Z,14.00
2023-04-27T17:10:01.084Z,13.90
2023-04-27T17:12:40.956Z,13.90
2023-04-27T17:15:14.596Z,14.00
2023-04-27T17:17:46.471Z,14.10
2023-04-27T17:20:24.385Z,14.10
2023-04-27T17:22:55.171Z,14.10
2023-04-27T17:25:23.144Z,13.90
2023-04-27T17:28:03.675Z,13.80
2023-04-27T17:30:34.573Z,13.80
2023-04-27T17:33:03.980Z,13.80
2023-04-27T17:35:34.898Z,13.70
2023-04-27T17:38:08.374Z,13.70
2023-04-27T17:40:36.227Z,13.70
2023-04-27T17:43:07.173Z,13.60
2023-04-27T17:45:38.609Z,13.60
2023-04-27T17:48:13.579Z,13.60
2023-04-27T17:51:03.938Z,13.60
2023-04-27T17:53:29.931Z,13.60
2023-04-27T17:55:57.824Z,13.50
2023-04-27T17:58:25.792Z,13.50
2023-04-27T18:00:56.598Z,13.50
2023-04-27T18:03:26.957Z,13.40
2023-04-27T18:05:58.176Z,13.40
2023-04-27T18:08:26.083Z,13.40
2023-04-27T18:10:59.866Z,13.50
2023-04-27T18:13:28.337Z,13.60
2023-04-27T18:15:56.212Z,13.60
2023-04-27T18:18:26.760Z,13.80
2023-04-27T18:21:00.352Z,14.00
2023-04-27T18:23:31.269Z,13.80
2023-04-27T18:26:01.927Z,13.80
2023-04-27T18:28:37.827Z,13.90
2023-04-27T18:31:15.511Z,14.10
2023-04-27T18:33:48.133Z,14.10
2023-04-27T18:36:19.833Z,14.30
2023-04-27T18:38:48.168Z,14.20
2023-04-27T18:41:18.860Z,14.30
2023-04-27T18:43:46.745Z,14.10
2023-04-27T18:46:14.701Z,13.90
2023-04-27T18:48:42.628Z,14.10
2023-04-27T18:51:11.836Z,14.20
2023-04-27T18:53:45.973Z,14.20
2023-04-27T18:56:14.725Z,14.30
2023-04-27T18:58:50.234Z,14.20
2023-04-27T19:01:30.046Z,14.20
2023-04-27T19:04:00.379Z,14.00
2023-04-27T19:06:29.887Z,14.10
2023-04-27T19:08:57.815Z,14.00
2023-04-27T19:11:25.929Z,14.00
2023-04-27T19:13:53.951Z,14.10
2023-04-27T19:16:24.193Z,13.90
2023-04-27T19:18:52.083Z,13.60
2023-04-27T19:21:19.968Z,13.80
2023-04-27T19:23:52.254Z,13.70
2023-04-27T19:26:20.204Z,13.70
2023-04-27T19:29:03.062Z,13.90
2023-04-27T19:31:33.938Z,14.10
2023-04-27T19:34:04.325Z,14.10
2023-04-27T19:36:35.739Z,14.20
2023-04-27T19:39:13.295Z,14.10
2023-04-27T19:41:41.689Z,14.00
2023-04-27T19:44:09.546Z,13.80
2023-04-27T19:46:37.473Z,13.80
2023-04-27T19:49:11.192Z,14.00
2023-04-27T19:51:45.141Z,14.10
2023-04-27T19:54:14.767Z,14.10
2023-04-27T19:56:43.232Z,13.90
2023-04-27T19:59:11.131Z,14.10
2023-04-27T20:01:39.027Z,14.20
2023-04-27T20:04:13.029Z,14.20
2023-04-27T20:06:43.255Z,14.30
2023-04-27T20:09:11.223Z,14.40
2023-04-27T20:11:42.726Z,14.30
2023-04-27T20:14:13.743Z,14.00
2023-04-27T20:16:48.067Z,14.00
2023-04-27T20:19:19.214Z,13.80
2023-04-27T20:21:47.166Z,13.90
2023-04-27T20:24:19.420Z,14.10
2023-04-27T20:26:48.685Z,14.00
2023-04-27T20:29:16.692Z,14.10
2023-04-27T20:31:53.251Z,14.20
2023-04-27T20:34:23.957Z,14.10
2023-04-27T20:36:52.954Z,14.20
2023-04-27T20:39:21.088Z,14.10
2023-04-27T20:42:02.345Z,13.90
2023-04-27T20:44:47.015Z,14.20
2023-04-27T20:47:23.971Z,14.30
2023-04-27T20:49:54.882Z,14.40
2023-04-27T20:52:34.437Z,14.40
2023-04-27T20:55:09.418Z,14.50
2023-04-27T20:57:38.673Z,14.50
2023-04-27T21:00:08.899Z,14.40
2023-04-27T21:02:36.892Z,14.20
2023-04-27T21:05:05.166Z,14.30
2023-04-27T21:07:33.113Z,14.10
2023-04-27T21:10:05.929Z,13.80
2023-04-27T21:12:34.513Z,13.90
2023-04-27T21:15:03.880Z,13.90
2023-04-27T21:17:34.850Z,13.80
2023-04-27T21:20:02.832Z,14.00
2023-04-27T21:22:30.745Z,13.80
2023-04-27T21:24:58.631Z,13.70
2023-04-27T21:27:26.504Z,13.50
2023-04-27T21:29:57.108Z,13.40
2023-04-27T21:32:26.410Z,13.40
2023-04-27T21:34:56.760Z,13.30
2023-04-27T21:37:24.604Z,13.30
2023-04-27T21:39:54.990Z,13.30
2023-04-27T21:42:22.842Z,13.40
2023-04-27T21:44:59.736Z,13.60
2023-04-27T21:47:28.960Z,13.70
2023-04-27T21:49:56.868Z,13.60
2023-04-27T21:52:24.785Z,13.60
2023-04-27T21:54:55.401Z,13.40
2023-04-27T21:57:23.261Z,13.60
2023-04-27T21:59:53.324Z,13.70
2023-04-27T22:02:21.296Z,13.70
2023-04-27T22:05:04.936Z,13.90
2023-04-27T22:07:36.050Z,13.80
2023-04-27T22:10:03.998Z,13.90
2023-04-27T22:12:32.471Z,13.80
2023-04-27T22:15:00.370Z,13.80
2023-04-27T22:17:31.405Z,13.80
2023-04-27T22:20:11.093Z,13.80
2023-04-27T22:22:39.053Z,13.80
2023-04-27T22:25:16.270Z,13.90
2023-04-27T22:27:45.269Z,14.00
2023-04-27T22:30:20.959Z,14.10
2023-04-27T22:32:48.918Z,14.20
2023-04-27T22:35:26.581Z,14.10
2023-04-27T22:38:01.593Z,14.10
2023-04-27T22:40:32.371Z,14.10
2023-04-27T22:43:00.436Z,14.00
2023-04-27T22:45:32.976Z,14.00
2023-04-27T22:48:00.893Z,14.00
2023-04-27T22:50:30.517Z,13.80
2023-04-27T22:53:10.360Z,13.80
2023-04-27T22:55:38.227Z,13.50
2023-04-27T22:58:06.177Z,13.50
2023-04-27T23:00:40.402Z,13.60
2023-04-27T23:03:08.422Z,13.70
2023-04-27T23:05:40.360Z,13.70
2023-04-27T23:08:08.224Z,13.80
2023-04-27T23:10:38.731Z,13.60
2023-04-27T23:13:11.270Z,13.50
2023-04-27T23:15:41.382Z,13.40
2023-04-27T23:18:12.366Z,13.50
2023-04-27T23:20:43.900Z,13.20
2023-04-27T23:23:19.416Z,13.30
2023-04-27T23:25:47.268Z,13.30
2023-04-27T23:28:15.097Z,13.30
2023-04-27T23:30:43.032Z,13.10
2023-04-27T23:33:14.027Z,13.00
2023-04-27T23:35:43.246Z,13.20
2023-04-27T23:38:17.160Z,13.40
2023-04-27T23:40:47.196Z,13.50
2023-04-27T23:43:17.872Z,13.70
2023-04-27T23:45:50.658Z,13.80
2023-04-27T23:48:23.840Z,13.70
2023-04-27T23:51:02.414Z,13.50
2023-04-27T23:53:35.655Z,13.30
2023-04-27T23:56:03.524Z,13.20
2023-04-27T23:58:34.433Z,13.20
